Wetterdaten: Woche 20.10.08 - 26.10.08 (KW43)
Datum Zeit Temperatur Luftfeuchte Luftdruck Niederschlag Wind Richtung Sonnenschein Solar Taupunkt Windchill Windben
20.10.2008 00:00 7.1 C 95 % 1023.6 hPa 0.0 l/m 0.3 km/h (0 Bft) O-SO 0.00 h 0 W/m 6.4 C 7.1 C 0.9 km/h (0 Bft)
20.10.2008 01:00 6.6 C 96 % 1023.7 hPa 0.0 l/m 0.1 km/h (0 Bft) O-SO 0.00 h 0 W/m 6.0 C 6.6 C 0.1 km/h (0 Bft)
20.10.2008 02:00 6.2 C 97 % 1023.8 hPa 0.0 l/m 0.1 km/h (0 Bft) O-SO 0.00 h 0 W/m 5.8 C 6.2 C 0.5 km/h (0 Bft)
20.10.2008 03:00 6.2 C 97 % 1023.4 hPa 0.0 l/m 0.4 km/h (0 Bft) O-SO 0.00 h 0 W/m 5.8 C 6.2 C 1.4 km/h (1 Bft)
20.10.2008 04:00 6.4 C 98 % 1023.3 hPa 0.0 l/m 1.6 km/h (1 Bft) O-SO 0.00 h 0 W/m 6.0 C 6.3 C 3.1 km/h (1 Bft)
20.10.2008 05:00 6.9 C 99 % 1023.0 hPa 0.0 l/m 0.1 km/h (0 Bft) O-SO 0.00 h 0 W/m 6.7 C 6.9 C 0.6 km/h (0 Bft)
20.10.2008 06:00 7.3 C 99 % 1022.8 hPa 0.0 l/m 0.0 km/h (0 Bft) N 0.00 h 0 W/m 7.1 C 7.3 C 0.2 km/h (0 Bft)
20.10.2008 07:00 7.5 C 99 % 1022.9 hPa 0.0 l/m 0.1 km/h (0 Bft) O-SO 0.00 h 5 W/m 7.4 C 7.5 C 0.2 km/h (0 Bft)
20.10.2008 08:00 7.7 C 99 % 1023.0 hPa 0.0 l/m 0.2 km/h (0 Bft) O-SO 0.07 h 31 W/m 7.5 C 7.7 C 0.6 km/h (0 Bft)
20.10.2008 09:00 8.4 C 99 % 1023.2 hPa 0.0 l/m 0.2 km/h (0 Bft) W 0.00 h 66 W/m 8.3 C 8.4 C 0.7 km/h (0 Bft)
20.10.2008 10:00 9.6 C 98 % 1023.2 hPa 0.0 l/m 0.1 km/h (0 Bft) W 0.00 h 118 W/m 9.3 C 9.6 C 0.8 km/h (0 Bft)
20.10.2008 11:00 11.6 C 88 % 1023.0 hPa 0.0 l/m 1.1 km/h (1 Bft) W 0.78 h 352 W/m 9.7 C 11.6 C 2.9 km/h (1 Bft)
20.10.2008 12:00 13.9 C 80 % 1022.3 hPa 0.0 l/m 1.8 km/h (1 Bft) NW 1.00 h 454 W/m 10.5 C 13.9 C 3.7 km/h (1 Bft)
20.10.2008 13:00 16.6 C 73 % 1021.2 hPa 0.0 l/m 1.4 km/h (1 Bft) NW 1.00 h 473 W/m 11.8 C 16.6 C 3.4 km/h (1 Bft)
20.10.2008 14:00 18.7 C 65 % 1020.0 hPa 0.0 l/m 3.6 km/h (1 Bft) S-SO 1.00 h 437 W/m 12.0 C 18.7 C 7.6 km/h (2 Bft)
20.10.2008 15:00 19.4 C 64 % 1019.3 hPa 0.0 l/m 3.2 km/h (1 Bft) S-SO 1.00 h 344 W/m 12.4 C 19.4 C 6.7 km/h (2 Bft)
20.10.2008 16:00 19.7 C 64 % 1018.6 hPa 0.0 l/m 3.6 km/h (1 Bft) S-SO 1.00 h 225 W/m 12.7 C 19.7 C 7.3 km/h (2 Bft)
20.10.2008 17:00 18.8 C 66 % 1018.0 hPa 0.0 l/m 3.6 km/h (1 Bft) S 0.88 h 95 W/m 12.4 C 18.8 C 7.6 km/h (2 Bft)
20.10.2008 18:00 17.3 C 71 % 1017.6 hPa 0.0 l/m 4.6 km/h (1 Bft) S-SO 0.02 h 13 W/m 11.9 C 17.3 C 8.6 km/h (2 Bft)
20.10.2008 19:00 16.0 C 76 % 1017.6 hPa 0.0 l/m 0.8 km/h (0 Bft) S-SO 0.00 h 0 W/m 11.7 C 16.0 C 2.3 km/h (1 Bft)
20.10.2008 20:00 14.9 C 80 % 1017.4 hPa 0.0 l/m 0.5 km/h (0 Bft) S 0.00 h 0 W/m 11.5 C 14.9 C 1.6 km/h (1 Bft)
20.10.2008 21:00 14.2 C 83 % 1017.6 hPa 0.0 l/m 1.6 km/h (1 Bft) SO 0.00 h 0 W/m 11.3 C 14.2 C 3.1 km/h (1 Bft)
20.10.2008 22:00 12.3 C 92 % 1017.8 hPa 0.0 l/m 0.3 km/h (0 Bft) SO 0.00 h 0 W/m 10.9 C 12.3 C 0.9 km/h (0 Bft)
20.10.2008 23:00 11.5 C 96 % 1017.7 hPa 0.0 l/m 0.1 km/h (0 Bft) O-SO 0.00 h 0 W/m 10.8 C 11.5 C 0.5 km/h (0 Bft)
21.10.2008 00:00 11.1 C 97 % 1017.4 hPa 0.0 l/m 0.1 km/h (0 Bft) O-SO 0.00 h 0 W/m 10.7 C 11.1 C 0.4 km/h (0 Bft)
21.10.2008 01:00 10.9 C 98 % 1017.0 hPa 0.0 l/m 0.2 km/h (0 Bft) O-SO 0.00 h 0 W/m 10.6 C 10.9 C 1.3 km/h (1 Bft)
21.10.2008 02:00 10.7 C 98 % 1016.6 hPa 0.0 l/m 0.5 km/h (0 Bft) O 0.00 h 0 W/m 10.4 C 10.7 C 1.8 km/h (1 Bft)
21.10.2008 03:00 10.5 C 99 % 1016.1 hPa 0.0 l/m 0.1 km/h (0 Bft) SO 0.00 h 0 W/m 10.3 C 10.5 C 0.9 km/h (0 Bft)
21.10.2008 04:00 10.7 C 99 % 1015.8 hPa 0.0 l/m 0.5 km/h (0 Bft) SO 0.00 h 0 W/m 10.5 C 10.7 C 1.2 km/h (1 Bft)
21.10.2008 05:00 11.1 C 97 % 1015.5 hPa 0.0 l/m 0.3 km/h (0 Bft) O-SO 0.00 h 0 W/m 10.7 C 11.1 C 0.9 km/h (0 Bft)
21.10.2008 06:00 10.7 C 99 % 1015.3 hPa 0.0 l/m 0.4 km/h (0 Bft) O-SO 0.00 h 0 W/m 10.5 C 10.7 C 1.1 km/h (0 Bft)
21.10.2008 07:00 10.8 C 99 % 1015.0 hPa 0.0 l/m 0.7 km/h (0 Bft) NO 0.00 h 0 W/m 10.6 C 10.8 C 2.0 km/h (1 Bft)
21.10.2008 08:00 11.1 C 100 % 1015.0 hPa 0.0 l/m 0.3 km/h (0 Bft) N-NO 0.00 h 29 W/m 11.1 C 11.1 C 1.1 km/h (1 Bft)
21.10.2008 09:00 12.0 C 99 % 1015.0 hPa 0.4 l/m 1.2 km/h (1 Bft) N 0.00 h 56 W/m 11.8 C 12.0 C 2.3 km/h (1 Bft)
21.10.2008 10:00 12.7 C 99 % 1015.3 hPa 0.8 l/m 0.7 km/h (0 Bft) O-NO 0.05 h 109 W/m 12.6 C 12.7 C 1.5 km/h (1 Bft)
21.10.2008 11:00 14.4 C 96 % 1014.9 hPa 0.0 l/m 0.6 km/h (0 Bft) O-NO 0.27 h 199 W/m 13.8 C 14.4 C 1.5 km/h (1 Bft)
21.10.2008 12:00 15.6 C 90 % 1014.5 hPa 0.0 l/m 0.9 km/h (0 Bft) S-SO 0.23 h 204 W/m 13.9 C 15.6 C 2.4 km/h (1 Bft)
21.10.2008 13:00 15.8 C 86 % 1013.9 hPa 0.2 l/m 1.2 km/h (1 Bft) S-SO 0.00 h 122 W/m 13.5 C 15.8 C 2.9 km/h (1 Bft)
21.10.2008 14:00 16.4 C 84 % 1013.1 hPa 0.0 l/m 1.2 km/h (1 Bft) S-SO 0.28 h 228 W/m 13.7 C 16.4 C 3.0 km/h (1 Bft)
21.10.2008 15:00 17.4 C 79 % 1012.3 hPa 0.0 l/m 2.3 km/h (1 Bft) S-SO 0.00 h 141 W/m 13.7 C 17.4 C 5.7 km/h (1 Bft)
21.10.2008 16:00 17.8 C 74 % 1011.8 hPa 0.0 l/m 5.7 km/h (1 Bft) S-SO 0.30 h 139 W/m 13.1 C 17.8 C 11.8 km/h (2 Bft)
21.10.2008 17:00 16.7 C 79 % 1011.9 hPa 0.0 l/m 3.0 km/h (1 Bft) W-SW 0.00 h 36 W/m 13.0 C 16.7 C 6.8 km/h (2 Bft)
21.10.2008 18:00 16.0 C 85 % 1012.5 hPa 0.4 l/m 6.0 km/h (2 Bft) W 0.00 h 6 W/m 13.5 C 16.0 C 10.2 km/h (2 Bft)
21.10.2008 19:00 14.9 C 92 % 1013.4 hPa 0.4 l/m 0.6 km/h (0 Bft) O 0.00 h 0 W/m 13.6 C 14.9 C 1.8 km/h (1 Bft)
21.10.2008 20:00 14.4 C 96 % 1013.6 hPa 0.2 l/m 1.8 km/h (1 Bft) O-SO 0.00 h 0 W/m 13.7 C 14.4 C 3.0 km/h (1 Bft)
21.10.2008 21:00 14.0 C 98 % 1013.5 hPa 0.0 l/m 0.3 km/h (0 Bft) O-SO 0.00 h 0 W/m 13.6 C 14.0 C 1.1 km/h (1 Bft)
21.10.2008 22:00 13.9 C 99 % 1013.7 hPa 0.0 l/m 1.1 km/h (1 Bft) O-SO 0.00 h 0 W/m 13.7 C 13.9 C 2.3 km/h (1 Bft)
21.10.2008 23:00 13.9 C 100 % 1013.6 hPa 0.2 l/m 1.6 km/h (1 Bft) O-SO 0.00 h 0 W/m 13.8 C 13.9 C 3.0 km/h (1 Bft)
22.10.2008 00:00 13.7 C 100 % 1013.6 hPa 0.2 l/m 0.3 km/h (0 Bft) SW 0.00 h 0 W/m 13.7 C 13.7 C 0.8 km/h (0 Bft)
22.10.2008 01:00 13.7 C 100 % 1013.5 hPa 0.4 l/m 0.4 km/h (0 Bft) SO 0.00 h 0 W/m 13.7 C 13.7 C 1.4 km/h (1 Bft)
22.10.2008 02:00 13.6 C 100 % 1013.3 hPa 0.0 l/m 0.1 km/h (0 Bft) SO 0.00 h 0 W/m 13.6 C 13.6 C 0.5 km/h (0 Bft)
22.10.2008 03:00 13.3 C 100 % 1013.0 hPa 0.0 l/m 0.0 km/h (0 Bft) SO 0.00 h 0 W/m 13.3 C 13.3 C 0.2 km/h (0 Bft)
22.10.2008 04:00 12.6 C 100 % 1013.1 hPa 0.0 l/m 2.4 km/h (1 Bft) W-NW 0.00 h 0 W/m 12.6 C 12.6 C 4.6 km/h (1 Bft)
22.10.2008 05:00 11.2 C 100 % 1013.7 hPa 0.0 l/m 3.9 km/h (1 Bft) NW 0.00 h 0 W/m 11.2 C 11.2 C 6.6 km/h (2 Bft)
22.10.2008 06:00 10.3 C 100 % 1014.3 hPa 0.4 l/m 4.1 km/h (1 Bft) NW 0.00 h 0 W/m 10.3 C 10.3 C 7.3 km/h (2 Bft)
22.10.2008 07:00 9.4 C 100 % 1015.2 hPa 0.0 l/m 4.4 km/h (1 Bft) NW 0.00 h 0 W/m 9.4 C 9.2 C 7.8 km/h (2 Bft)
22.10.2008 08:00 8.7 C 100 % 1016.3 hPa 0.0 l/m 2.8 km/h (1 Bft) N-NW 0.00 h 6 W/m 8.7 C 8.5 C 5.1 km/h (1 Bft)
22.10.2008 09:00 8.8 C 100 % 1017.4 hPa 1.2 l/m 1.3 km/h (1 Bft) N-NW 0.00 h 14 W/m 8.8 C 8.8 C 3.0 km/h (1 Bft)
22.10.2008 10:00 8.7 C 100 % 1018.4 hPa 2.6 l/m 1.8 km/h (1 Bft) N-NW 0.00 h 22 W/m 8.7 C 8.7 C 3.7 km/h (1 Bft)
22.10.2008 11:00 8.7 C 100 % 1019.1 hPa 1.0 l/m 0.5 km/h (0 Bft) N 0.00 h 49 W/m 8.7 C 8.7 C 2.0 km/h (1 Bft)
22.10.2008 12:00 8.8 C 100 % 1019.7 hPa 0.0 l/m 1.4 km/h (1 Bft) N 0.00 h 50 W/m 8.8 C 8.8 C 3.2 km/h (1 Bft)
22.10.2008 13:00 8.7 C 100 % 1019.9 hPa 0.8 l/m 1.5 km/h (1 Bft) NW 0.00 h 45 W/m 8.7 C 8.7 C 3.6 km/h (1 Bft)
22.10.2008 14:00 8.6 C 100 % 1020.3 hPa 0.2 l/m 0.7 km/h (0 Bft) NO 0.00 h 44 W/m 8.6 C 8.6 C 2.3 km/h (1 Bft)
22.10.2008 15:00 8.7 C 98 % 1021.0 hPa 0.4 l/m 0.9 km/h (0 Bft) NO 0.00 h 21 W/m 8.5 C 8.7 C 2.5 km/h (1 Bft)
22.10.2008 16:00 8.5 C 98 % 1021.9 hPa 1.0 l/m 1.8 km/h (1 Bft) NO 0.00 h 26 W/m 8.1 C 8.4 C 4.5 km/h (1 Bft)
22.10.2008 17:00 7.9 C 94 % 1023.0 hPa 0.6 l/m 0.9 km/h (0 Bft) NO 0.00 h 9 W/m 7.0 C 7.9 C 2.6 km/h (1 Bft)
22.10.2008 18:00 7.7 C 94 % 1024.5 hPa 1.4 l/m 0.6 km/h (0 Bft) NO 0.00 h 0 W/m 6.8 C 7.7 C 1.6 km/h (1 Bft)
22.10.2008 19:00 6.8 C 93 % 1026.4 hPa 0.6 l/m 1.8 km/h (1 Bft) O 0.00 h 0 W/m 5.7 C 6.8 C 4.6 km/h (1 Bft)
22.10.2008 20:00 6.2 C 93 % 1027.8 hPa 1.2 l/m 2.6 km/h (1 Bft) O-SO 0.00 h 0 W/m 5.0 C 6.0 C 4.9 km/h (1 Bft)
22.10.2008 21:00 5.8 C 93 % 1029.0 hPa 1.4 l/m 0.3 km/h (0 Bft) O-SO 0.00 h 0 W/m 4.8 C 5.8 C 1.1 km/h (1 Bft)
22.10.2008 22:00 5.5 C 93 % 1029.8 hPa 1.2 l/m 0.6 km/h (0 Bft) O 0.00 h 0 W/m 4.5 C 5.5 C 1.7 km/h (1 Bft)
22.10.2008 23:00 5.2 C 93 % 1030.1 hPa 0.2 l/m 0.6 km/h (0 Bft) O-NO 0.00 h 0 W/m 4.1 C 5.2 C 2.0 km/h (1 Bft)
23.10.2008 00:00 4.9 C 93 % 1030.0 hPa 0.0 l/m 0.3 km/h (0 Bft) O-SO 0.00 h 0 W/m 3.9 C 4.9 C 1.0 km/h (0 Bft)
23.10.2008 01:00 4.9 C 93 % 1029.9 hPa 0.2 l/m 0.6 km/h (0 Bft) O-NO 0.00 h 0 W/m 3.9 C 4.9 C 2.0 km/h (1 Bft)
23.10.2008 02:00 4.9 C 93 % 1029.6 hPa 0.0 l/m 1.6 km/h (1 Bft) N-NO 0.00 h 0 W/m 3.9 C 4.8 C 3.4 km/h (1 Bft)
23.10.2008 03:00 4.9 C 93 % 1029.5 hPa 0.0 l/m 1.5 km/h (1 Bft) N-NO 0.00 h 0 W/m 3.9 C 4.8 C 4.2 km/h (1 Bft)
23.10.2008 04:00 4.9 C 93 % 1029.1 hPa 0.0 l/m 0.5 km/h (0 Bft) NO 0.00 h 0 W/m 3.9 C 4.9 C 1.8 km/h (1 Bft)
23.10.2008 05:00 4.9 C 93 % 1029.1 hPa 0.0 l/m 1.0 km/h (0 Bft) NO 0.00 h 0 W/m 3.9 C 4.8 C 3.0 km/h (1 Bft)
23.10.2008 06:00 4.9 C 92 % 1029.1 hPa 0.0 l/m 0.4 km/h (0 Bft) N-NO 0.00 h 0 W/m 3.7 C 4.9 C 1.4 km/h (1 Bft)
23.10.2008 07:00 4.6 C 92 % 1029.1 hPa 0.0 l/m 0.3 km/h (0 Bft) N-NO 0.00 h 0 W/m 3.5 C 4.6 C 1.7 km/h (1 Bft)
23.10.2008 08:00 4.5 C 92 % 1029.3 hPa 0.0 l/m 0.5 km/h (0 Bft) NO 0.00 h 21 W/m 3.3 C 4.5 C 1.8 km/h (1 Bft)
23.10.2008 09:00 5.5 C 91 % 1029.6 hPa 0.0 l/m 0.9 km/h (0 Bft) NO 0.62 h 145 W/m 4.1 C 5.5 C 2.4 km/h (1 Bft)
23.10.2008 10:00 7.3 C 83 % 1029.4 hPa 0.0 l/m 2.6 km/h (1 Bft) NO 0.63 h 206 W/m 4.6 C 7.1 C 6.1 km/h (2 Bft)
23.10.2008 11:00 8.0 C 79 % 1029.0 hPa 0.0 l/m 4.1 km/h (1 Bft) N 0.03 h 152 W/m 4.5 C 7.6 C 8.6 km/h (2 Bft)
23.10.2008 12:00 9.0 C 74 % 1028.4 hPa 0.0 l/m 4.4 km/h (1 Bft) O-SO 0.00 h 175 W/m 4.7 C 8.7 C 9.1 km/h (2 Bft)
23.10.2008 13:00 9.4 C 73 % 1027.9 hPa 0.0 l/m 2.7 km/h (1 Bft) O 0.00 h 123 W/m 4.8 C 9.3 C 6.6 km/h (2 Bft)
23.10.2008 14:00 9.2 C 74 % 1027.4 hPa 0.0 l/m 2.7 km/h (1 Bft) N-NO 0.00 h 85 W/m 4.9 C 9.1 C 6.3 km/h (2 Bft)
23.10.2008 15:00 9.2 C 74 % 1027.0 hPa 0.0 l/m 2.7 km/h (1 Bft) NO 0.00 h 75 W/m 4.9 C 9.0 C 5.7 km/h (1 Bft)
23.10.2008 16:00 8.9 C 74 % 1026.7 hPa 0.0 l/m 2.6 km/h (1 Bft) N-NO 0.00 h 50 W/m 4.6 C 8.8 C 6.3 km/h (2 Bft)
23.10.2008 17:00 8.7 C 76 % 1026.3 hPa 0.0 l/m 0.9 km/h (0 Bft) NO 0.00 h 16 W/m 4.6 C 8.7 C 3.0 km/h (1 Bft)
23.10.2008 18:00 8.5 C 76 % 1026.2 hPa 0.0 l/m 0.9 km/h (0 Bft) O 0.00 h 5 W/m 4.4 C 8.4 C 2.5 km/h (1 Bft)
23.10.2008 19:00 8.2 C 77 % 1026.6 hPa 0.0 l/m 1.2 km/h (1 Bft) N-NO 0.00 h 0 W/m 4.5 C 8.2 C 3.2 km/h (1 Bft)
23.10.2008 20:00 8.0 C 78 % 1026.7 hPa 0.0 l/m 1.2 km/h (1 Bft) N-NO 0.00 h 0 W/m 4.4 C 8.0 C 3.1 km/h (1 Bft)
23.10.2008 21:00 7.8 C 79 % 1026.2 hPa 0.0 l/m 0.6 km/h (0 Bft) O-SO 0.00 h 0 W/m 4.4 C 7.8 C 2.4 km/h (1 Bft)
23.10.2008 22:00 7.7 C 81 % 1026.2 hPa 0.0 l/m 0.0 km/h (0 Bft) O-NO 0.00 h 0 W/m 4.7 C 7.7 C 0.7 km/h (0 Bft)
23.10.2008 23:00 7.6 C 83 % 1026.1 hPa 0.0 l/m 0.1 km/h (0 Bft) O-NO 0.00 h 0 W/m 4.9 C 7.6 C 0.3 km/h (0 Bft)
24.10.2008 00:00 7.5 C 85 % 1026.0 hPa 0.0 l/m 0.0 km/h (0 Bft) O-NO 0.00 h 0 W/m 5.1 C 7.5 C 0.4 km/h (0 Bft)
24.10.2008 01:00 7.4 C 86 % 1025.5 hPa 0.0 l/m 0.0 km/h (0 Bft) N 0.00 h 0 W/m 5.1 C 7.4 C 0.0 km/h (0 Bft)
24.10.2008 02:00 7.3 C 88 % 1025.4 hPa 0.0 l/m 0.0 km/h (0 Bft) O-NO 0.00 h 0 W/m 5.4 C 7.3 C 0.2 km/h (0 Bft)
24.10.2008 03:00 7.3 C 89 % 1025.0 hPa 0.0 l/m 0.3 km/h (0 Bft) O-NO 0.00 h 0 W/m 5.6 C 7.3 C 1.5 km/h (1 Bft)
24.10.2008 04:00 7.3 C 88 % 1024.8 hPa 0.0 l/m 0.6 km/h (0 Bft) O-NO 0.00 h 0 W/m 5.5 C 7.3 C 2.0 km/h (1 Bft)
24.10.2008 05:00 7.4 C 87 % 1024.8 hPa 0.0 l/m 0.0 km/h (0 Bft) S-SO 0.00 h 0 W/m 5.4 C 7.4 C 0.6 km/h (0 Bft)
24.10.2008 06:00 7.5 C 86 % 1024.8 hPa 0.0 l/m 0.3 km/h (0 Bft) S-SO 0.00 h 0 W/m 5.4 C 7.5 C 1.4 km/h (1 Bft)
24.10.2008 07:00 7.3 C 87 % 1024.9 hPa 0.0 l/m 0.0 km/h (0 Bft) N 0.00 h 0 W/m 5.2 C 7.3 C 0.1 km/h (0 Bft)
24.10.2008 08:00 6.6 C 89 % 1025.1 hPa 0.0 l/m 0.3 km/h (0 Bft) S-SO 0.00 h 16 W/m 4.9 C 6.6 C 0.5 km/h (0 Bft)
24.10.2008 09:00 6.6 C 92 % 1025.5 hPa 0.0 l/m 0.0 km/h (0 Bft) N 0.00 h 77 W/m 5.4 C 6.6 C 0.2 km/h (0 Bft)
24.10.2008 10:00 8.2 C 88 % 1025.5 hPa 0.0 l/m 0.1 km/h (0 Bft) S-SO 0.60 h 198 W/m 6.3 C 8.2 C 0.6 km/h (0 Bft)
24.10.2008 11:00 9.3 C 81 % 1025.4 hPa 0.0 l/m 1.3 km/h (1 Bft) W-NW 0.13 h 204 W/m 6.2 C 9.3 C 2.9 km/h (1 Bft)
24.10.2008 12:00 10.3 C 79 % 1025.4 hPa 0.0 l/m 1.8 km/h (1 Bft) O-SO 0.60 h 339 W/m 6.7 C 10.3 C 3.8 km/h (1 Bft)
24.10.2008 13:00 11.6 C 75 % 1025.1 hPa 0.0 l/m 2.9 km/h (1 Bft) O-SO 0.87 h 430 W/m 7.3 C 11.6 C 5.4 km/h (1 Bft)
24.10.2008 14:00 12.1 C 73 % 1024.7 hPa 0.0 l/m 2.5 km/h (1 Bft) S-SO 0.90 h 390 W/m 7.5 C 12.1 C 4.9 km/h (1 Bft)
24.10.2008 15:00 13.1 C 71 % 1024.3 hPa 0.0 l/m 2.1 km/h (1 Bft) S-SO 1.00 h 331 W/m 7.9 C 13.1 C 4.7 km/h (1 Bft)
24.10.2008 16:00 13.4 C 70 % 1024.3 hPa 0.0 l/m 1.4 km/h (1 Bft) S 1.00 h 215 W/m 8.1 C 13.4 C 3.4 km/h (1 Bft)
24.10.2008 17:00 13.0 C 74 % 1024.7 hPa 0.0 l/m 0.2 km/h (0 Bft) W 0.77 h 82 W/m 8.4 C 13.0 C 1.6 km/h (1 Bft)
24.10.2008 18:00 10.6 C 82 % 1025.7 hPa 0.0 l/m 0.3 km/h (0 Bft) S-SO 0.03 h 10 W/m 7.7 C 10.6 C 0.7 km/h (0 Bft)
24.10.2008 19:00 8.9 C 87 % 1026.7 hPa 0.0 l/m 1.8 km/h (1 Bft) O-SO 0.00 h 0 W/m 6.8 C 8.8 C 3.3 km/h (1 Bft)
24.10.2008 20:00 7.1 C 92 % 1027.7 hPa 0.0 l/m 2.1 km/h (1 Bft) O 0.00 h 0 W/m 5.9 C 7.0 C 3.6 km/h (1 Bft)
24.10.2008 21:00 6.3 C 95 % 1028.3 hPa 0.0 l/m 0.6 km/h (0 Bft) SO 0.00 h 0 W/m 5.5 C 6.3 C 1.6 km/h (1 Bft)
24.10.2008 22:00 5.4 C 96 % 1029.0 hPa 0.0 l/m 0.5 km/h (0 Bft) SO 0.00 h 0 W/m 4.8 C 5.4 C 1.0 km/h (0 Bft)
24.10.2008 23:00 4.6 C 98 % 1029.5 hPa 0.0 l/m 0.0 km/h (0 Bft) SO 0.00 h 0 W/m 4.3 C 4.6 C 0.3 km/h (0 Bft)
25.10.2008 00:00 4.1 C 98 % 1029.8 hPa 0.0 l/m 0.8 km/h (0 Bft) SO 0.00 h 0 W/m 3.9 C 4.1 C 1.4 km/h (1 Bft)
25.10.2008 01:00 4.0 C 99 % 1030.2 hPa 0.0 l/m 0.6 km/h (0 Bft) SO 0.00 h 0 W/m 3.9 C 4.0 C 1.3 km/h (1 Bft)
25.10.2008 02:00 4.3 C 100 % 1030.6 hPa 0.0 l/m 0.0 km/h (0 Bft) N 0.00 h 0 W/m 4.3 C 4.3 C 0.2 km/h (0 Bft)
25.10.2008 03:00 4.1 C 100 % 1030.8 hPa 0.0 l/m 0.0 km/h (0 Bft) SO 0.00 h 0 W/m 4.1 C 4.1 C 0.1 km/h (0 Bft)
25.10.2008 04:00 3.9 C 100 % 1031.0 hPa 0.0 l/m 0.3 km/h (0 Bft) SO 0.00 h 0 W/m 3.9 C 3.9 C 1.0 km/h (0 Bft)
25.10.2008 05:00 3.5 C 100 % 1031.4 hPa 0.0 l/m 1.7 km/h (1 Bft) NW 0.00 h 0 W/m 3.5 C 3.4 C 3.3 km/h (1 Bft)
25.10.2008 06:00 3.7 C 100 % 1031.9 hPa 0.0 l/m 0.8 km/h (0 Bft) N 0.00 h 0 W/m 3.7 C 3.7 C 2.1 km/h (1 Bft)
25.10.2008 07:00 3.4 C 100 % 1032.1 hPa 0.0 l/m 0.6 km/h (0 Bft) N-NW 0.00 h 0 W/m 3.4 C 3.4 C 1.7 km/h (1 Bft)
25.10.2008 08:00 3.0 C 100 % 1032.7 hPa 0.0 l/m 0.9 km/h (0 Bft) N-NW 0.00 h 17 W/m 3.0 C 3.0 C 2.1 km/h (1 Bft)
25.10.2008 09:00 3.4 C 100 % 1033.3 hPa 0.0 l/m 0.3 km/h (0 Bft) N-NW 0.33 h 101 W/m 3.4 C 3.4 C 1.1 km/h (0 Bft)
25.10.2008 10:00 5.9 C 94 % 1033.5 hPa 0.0 l/m 0.6 km/h (0 Bft) SO 0.62 h 212 W/m 5.1 C 5.9 C 1.7 km/h (1 Bft)
25.10.2008 11:00 8.7 C 83 % 1033.1 hPa 0.0 l/m 3.9 km/h (1 Bft) SO 1.00 h 383 W/m 6.0 C 8.3 C 6.8 km/h (2 Bft)
25.10.2008 12:00 10.3 C 77 % 1032.6 hPa 0.0 l/m 4.1 km/h (1 Bft) SO 1.00 h 446 W/m 6.4 C 10.2 C 7.0 km/h (2 Bft)
25.10.2008 13:00 11.9 C 72 % 1031.6 hPa 0.0 l/m 3.2 km/h (1 Bft) SO 1.00 h 461 W/m 7.1 C 11.9 C 6.2 km/h (2 Bft)
25.10.2008 14:00 12.8 C 69 % 1030.7 hPa 0.0 l/m 3.9 km/h (1 Bft) SO 1.00 h 419 W/m 7.3 C 12.8 C 7.0 km/h (2 Bft)
25.10.2008 15:00 13.3 C 67 % 1030.2 hPa 0.0 l/m 4.8 km/h (1 Bft) SO 1.00 h 336 W/m 7.3 C 13.3 C 8.0 km/h (2 Bft)
25.10.2008 16:00 13.2 C 67 % 1030.2 hPa 0.0 l/m 4.5 km/h (1 Bft) SO 1.00 h 210 W/m 7.1 C 13.2 C 7.5 km/h (2 Bft)
25.10.2008 17:00 12.2 C 70 % 1030.6 hPa 0.0 l/m 3.5 km/h (1 Bft) SO 0.70 h 76 W/m 6.8 C 12.2 C 6.1 km/h (2 Bft)
25.10.2008 18:00 10.1 C 79 % 1031.0 hPa 0.0 l/m 3.6 km/h (1 Bft) O-SO 0.03 h 10 W/m 6.6 C 10.1 C 5.3 km/h (1 Bft)
25.10.2008 19:00 8.6 C 86 % 1031.8 hPa 0.0 l/m 1.0 km/h (0 Bft) O-SO 0.00 h 0 W/m 6.3 C 8.5 C 2.3 km/h (1 Bft)
25.10.2008 20:00 6.8 C 92 % 1032.0 hPa 0.0 l/m 0.8 km/h (0 Bft) SO 0.00 h 0 W/m 5.5 C 6.8 C 1.9 km/h (1 Bft)
25.10.2008 21:00 6.3 C 94 % 1032.0 hPa 0.0 l/m 0.1 km/h (0 Bft) SO 0.00 h 0 W/m 5.5 C 6.3 C 0.6 km/h (0 Bft)
25.10.2008 22:00 5.6 C 96 % 1032.1 hPa 0.0 l/m 0.0 km/h (0 Bft) N 0.00 h 0 W/m 5.0 C 5.6 C 0.1 km/h (0 Bft)
25.10.2008 23:00 4.9 C 98 % 1031.9 hPa 0.0 l/m 0.0 km/h (0 Bft) SO 0.00 h 0 W/m 4.6 C 4.9 C 0.3 km/h (0 Bft)
26.10.2008 00:00 4.5 C 98 % 1031.7 hPa 0.0 l/m 0.1 km/h (0 Bft) SO 0.00 h 0 W/m 4.2 C 4.5 C 0.3 km/h (0 Bft)
26.10.2008 01:00 4.5 C 99 % 1031.6 hPa 0.0 l/m 0.5 km/h (0 Bft) SO 0.00 h 0 W/m 4.4 C 4.5 C 1.2 km/h (1 Bft)
26.10.2008 02:00 3.9 C 100 % 1031.1 hPa 0.2 l/m 0.3 km/h (0 Bft) O-SO 0.00 h 0 W/m 3.9 C 3.9 C 1.0 km/h (0 Bft)
26.10.2008 03:00 4.1 C 100 % 1030.5 hPa 0.0 l/m 0.5 km/h (0 Bft) NW 0.00 h 0 W/m 4.1 C 4.1 C 1.8 km/h (1 Bft)
26.10.2008 04:00 3.9 C 100 % 1030.1 hPa 0.0 l/m 0.6 km/h (0 Bft) NW 0.00 h 0 W/m 3.9 C 3.9 C 1.6 km/h (1 Bft)
26.10.2008 05:00 3.8 C 100 % 1029.8 hPa 0.0 l/m 0.1 km/h (0 Bft) W-NW 0.00 h 0 W/m 3.8 C 3.8 C 0.5 km/h (0 Bft)
26.10.2008 06:00 4.1 C 100 % 1029.4 hPa 0.0 l/m 0.7 km/h (0 Bft) NW 0.00 h 0 W/m 4.1 C 4.1 C 2.1 km/h (1 Bft)
26.10.2008 07:00 4.5 C 100 % 1029.2 hPa 0.0 l/m 0.5 km/h (0 Bft) SW 0.00 h 14 W/m 4.5 C 4.5 C 1.2 km/h (1 Bft)
26.10.2008 08:00 5.4 C 100 % 1029.5 hPa 0.0 l/m 0.1 km/h (0 Bft) NW 0.00 h 44 W/m 5.4 C 5.4 C 0.5 km/h (0 Bft)
26.10.2008 09:00 6.4 C 97 % 1029.5 hPa 0.0 l/m 0.3 km/h (0 Bft) NW 0.00 h 97 W/m 6.0 C 6.4 C 1.2 km/h (1 Bft)
26.10.2008 10:00 8.2 C 89 % 1029.1 hPa 0.0 l/m 0.4 km/h (0 Bft) NW 0.23 h 224 W/m 6.5 C 8.2 C 1.6 km/h (1 Bft)
26.10.2008 11:00 10.7 C 79 % 1028.3 hPa 0.0 l/m 3.5 km/h (1 Bft) S-SO 0.95 h 428 W/m 7.2 C 10.7 C 7.3 km/h (2 Bft)
26.10.2008 12:00 11.3 C 76 % 1027.4 hPa 0.0 l/m 4.8 km/h (1 Bft) S 1.00 h 450 W/m 7.3 C 11.3 C 9.7 km/h (2 Bft)
26.10.2008 13:00 12.0 C 75 % 1025.9 hPa 0.0 l/m 3.1 km/h (1 Bft) S-SO 1.00 h 417 W/m 7.8 C 12.0 C 6.6 km/h (2 Bft)
26.10.2008 14:00 12.4 C 74 % 1024.8 hPa 0.0 l/m 4.5 km/h (1 Bft) S-SO 1.00 h 320 W/m 7.8 C 12.4 C 8.9 km/h (2 Bft)
26.10.2008 15:00 13.1 C 73 % 1023.8 hPa 0.0 l/m 2.3 km/h (1 Bft) S 0.82 h 185 W/m 8.4 C 13.1 C 5.3 km/h (1 Bft)
26.10.2008 16:00 11.8 C 77 % 1023.6 hPa 0.0 l/m 1.9 km/h (1 Bft) S-SO 0.00 h 29 W/m 7.9 C 11.8 C 4.7 km/h (1 Bft)
26.10.2008 17:00 11.0 C 81 % 1023.3 hPa 0.0 l/m 0.5 km/h (0 Bft) S-SO 0.00 h 6 W/m 7.9 C 11.0 C 2.0 km/h (1 Bft)
26.10.2008 18:00 10.0 C 84 % 1023.3 hPa 0.0 l/m 3.0 km/h (1 Bft) S-SO 0.00 h 0 W/m 7.5 C 9.9 C 4.5 km/h (1 Bft)
26.10.2008 19:00 9.4 C 89 % 1023.0 hPa 0.0 l/m 3.8 km/h (1 Bft) O-SO 0.00 h 0 W/m 7.7 C 9.2 C 5.5 km/h (1 Bft)
26.10.2008 20:00 9.1 C 91 % 1022.3 hPa 0.0 l/m 0.8 km/h (0 Bft) O-SO 0.00 h 0 W/m 7.7 C 9.1 C 2.0 km/h (1 Bft)
26.10.2008 21:00 8.4 C 93 % 1021.8 hPa 0.0 l/m 0.2 km/h (0 Bft) O-SO 0.00 h 0 W/m 7.3 C 8.4 C 0.9 km/h (0 Bft)
26.10.2008 22:00 7.1 C 97 % 1020.9 hPa 0.0 l/m 0.0 km/h (0 Bft) N 0.00 h 0 W/m 6.6 C 7.1 C 0.3 km/h (0 Bft)
26.10.2008 23:00 6.4 C 98 % 1020.0 hPa 0.0 l/m 0.1 km/h (0 Bft) O-SO 0.00 h 0 W/m 6.1 C 6.4 C 0.4 km/h (0 Bft)
Min-Datum _ 25.10.08 20.10.08 21.10.08 - 20.10.08 - - - 25.10.08 25.10.08 20.10.08
_ Min-Zeit 08:50 14:26 16:30 - 00:00 - - - 08:50 05:41 00:00
Minimum _ 2.7 C 62 % 1011.5 hPa - 0.0 km/h (0 Bft) - - - 2.7 C 1.6 C 0.0 km/h (0 Bft)
Max-Datum _ 20.10.08 21.10.08 25.10.08 22.10.08 21.10.08 - 20.10.08 24.10.08 21.10.08 20.10.08 21.10.08
_ Max-Zeit 16:33 07:59 10:15 10:05 16:39 - 08:28 12:53 14:43 16:33 16:39
Maximum _ 19.9 C 100 % 1033.6 hPa 2.6 l/m 13.9 km/h
S-SO (3 Bft)
- 0.02 h 524 W/m 15.1 C 19.9 C 26.1 km/h
S-SO (4 Bft)
Durchschnitt _ 9.3 C 89 % 1023.9 hPa #17.8 l/m 1.3 km/h (1 Bft) O-SO #27:45 h 161 W/m 7.5 C 9.2 C 2.9 km/h (1 Bft)
© Kaiko 2008